Time;durP1;ratioP1;P1;durP2;ratioP2;P2;SDS_P1;SDS_P2;PMS_P1;PMS_P2;Temp;Humidity;BMP_temperature;BMP_pressure;BME280_temperature;BME280_humidity;BME280_pressure;Samples;Min_cycle;Max_cycle;Signal;HPM_P1;HPM_P2
2021/01/15 18:31:35;;;;;;;20.67;6.85;;;21.60;43.50;;;;;;5153231;23;20392;-47
2021/01/15 18:34:01;;;;;;;20.00;7.07;;;21.60;43.60;;;;;;4997531;28;20444;-53
2021/01/15 18:36:28;;;;;;;17.42;6.20;;;21.60;43.60;;;;;;4997403;28;20068;-49
2021/01/15 18:38:54;;;;;;;21.08;7.35;;;21.60;43.70;;;;;;4998346;28;20041;-53
2021/01/15 18:41:19;;;;;;;22.55;6.80;;;21.70;43.80;;;;;;4997614;28;20039;-51
2021/01/15 18:43:45;;;;;;;18.98;7.00;;;21.70;43.80;;;;;;4998140;28;20026;-53
2021/01/15 18:46:11;;;;;;;21.55;5.70;;;21.70;43.70;;;;;;4997959;28;20046;-50
2021/01/15 18:48:43;;;;;;;25.52;6.03;;;21.70;43.60;;;;;;4998039;28;20045;-51
2021/01/15 18:51:09;;;;;;;14.80;5.97;;;21.70;43.50;;;;;;4997802;28;20396;-55
2021/01/15 18:53:35;;;;;;;19.30;6.50;;;21.80;43.50;;;;;;4997971;28;20109;-52
2021/01/15 18:56:02;;;;;;;18.60;6.03;;;21.80;43.20;;;;;;4997481;28;20031;-52
2021/01/15 18:58:28;;;;;;;14.18;5.68;;;21.80;43.30;;;;;;4997517;28;20538;-50
2021/01/15 19:00:53;;;;;;;13.05;5.18;;;21.80;43.20;;;;;;4998104;28;20066;-47
2021/01/15 19:03:19;;;;;;;11.30;5.25;;;21.80;43.10;;;;;;4997559;28;20456;-50
2021/01/15 19:05:44;;;;;;;13.73;5.78;;;21.80;43.20;;;;;;4997345;28;20070;-53
2021/01/15 19:08:10;;;;;;;11.63;5.78;;;21.90;43.30;;;;;;4997065;28;20042;-51
2021/01/15 19:10:35;;;;;;;17.83;5.07;;;21.90;43.20;;;;;;4997357;28;20449;-54
2021/01/15 19:13:01;;;;;;;10.43;4.50;;;21.90;43.20;;;;;;4997142;28;20039;-56
2021/01/15 19:15:38;;;;;;;10.88;5.13;;;21.90;43.10;;;;;;4997439;28;20048;-55
2021/01/15 19:18:06;;;;;;;10.27;4.78;;;21.90;43.10;;;;;;4997335;28;20030;-51
2021/01/15 19:20:33;;;;;;;12.60;4.63;;;21.90;43.00;;;;;;4997557;28;20413;-54
2021/01/15 19:22:59;;;;;;;13.27;4.95;;;21.90;43.00;;;;;;4997141;28;20125;-55
2021/01/15 19:25:25;;;;;;;9.43;4.57;;;21.90;42.90;;;;;;4997140;28;20114;-53
2021/01/15 19:27:50;;;;;;;9.25;4.32;;;21.90;42.90;;;;;;4997051;28;20042;-50
2021/01/15 19:30:16;;;;;;;12.95;4.88;;;22.00;42.90;;;;;;4997310;28;20034;-51
2021/01/15 19:32:42;;;;;;;11.90;4.25;;;22.00;42.90;;;;;;4997450;28;20047;-52
2021/01/15 19:35:09;;;;;;;11.43;4.47;;;22.00;42.80;;;;;;4996987;28;20475;-52
2021/01/15 19:37:35;;;;;;;9.60;4.90;;;21.90;42.70;;;;;;4996609;28;20050;-52
2021/01/15 19:40:00;;;;;;;14.95;4.25;;;21.90;42.60;;;;;;4996814;28;20035;-54
2021/01/15 19:42:26;;;;;;;14.93;4.30;;;22.00;42.60;;;;;;4996870;28;20045;-51
2021/01/15 19:44:51;;;;;;;9.40;3.97;;;22.00;42.60;;;;;;4996525;28;20034;-51
2021/01/15 19:47:17;;;;;;;10.65;3.95;;;22.00;42.60;;;;;;4997063;28;20369;-53
2021/01/15 19:49:42;;;;;;;10.10;3.97;;;22.00;42.60;;;;;;4996922;28;20043;-49
2021/01/15 19:52:07;;;;;;;8.68;3.60;;;22.00;42.60;;;;;;4996147;28;20420;-52
2021/01/15 19:54:33;;;;;;;10.70;3.90;;;22.00;42.50;;;;;;4996448;28;20035;-54
2021/01/15 19:56:58;;;;;;;9.80;3.17;;;22.00;42.50;;;;;;4996722;28;20034;-53
2021/01/15 19:59:24;;;;;;;6.18;3.53;;;22.00;42.50;;;;;;4996917;28;20030;-54
2021/01/15 20:01:49;;;;;;;9.05;4.20;;;22.00;42.40;;;;;;4996733;28;20416;-52
2021/01/15 20:04:15;;;;;;;6.65;3.13;;;22.00;42.40;;;;;;4996388;28;20088;-56
2021/01/15 20:06:41;;;;;;;6.00;3.38;;;22.00;42.30;;;;;;4996242;28;20069;-55
2021/01/15 20:09:07;;;;;;;8.98;3.00;;;22.00;42.30;;;;;;4996235;28;20031;-53
2021/01/15 20:11:33;;;;;;;5.95;3.30;;;22.00;42.30;;;;;;4996213;28;20031;-53
2021/01/15 20:13:59;;;;;;;7.57;3.58;;;22.00;42.20;;;;;;4996485;28;20053;-51
2021/01/15 20:16:28;;;;;;;9.70;3.38;;;22.00;42.20;;;;;;4996151;28;20054;-50
2021/01/15 20:18:54;;;;;;;10.50;4.28;;;22.00;42.20;;;;;;4996232;28;20035;-50
2021/01/15 20:21:20;;;;;;;8.57;3.58;;;22.00;42.00;;;;;;4995796;28;20050;-55
2021/01/15 20:23:45;;;;;;;5.82;3.42;;;22.00;42.00;;;;;;4996163;28;20093;-48
2021/01/15 20:26:11;;;;;;;8.80;3.90;;;22.00;42.00;;;;;;4995199;28;20054;-53
2021/01/15 20:28:36;;;;;;;6.63;3.40;;;22.00;41.90;;;;;;4996083;28;20105;-52
2021/01/15 20:31:02;;;;;;;5.18;2.75;;;22.00;42.00;;;;;;4995947;28;20109;-52
2021/01/15 20:33:27;;;;;;;9.60;3.15;;;22.10;42.10;;;;;;4995442;28;20504;-53
2021/01/15 20:35:53;;;;;;;7.00;3.28;;;22.10;42.10;;;;;;4995747;28;20381;-50
2021/01/15 20:38:19;;;;;;;5.55;3.13;;;22.00;42.10;;;;;;4996323;28;20346;-55
2021/01/15 20:40:44;;;;;;;6.13;2.88;;;22.10;42.10;;;;;;4995690;28;20045;-54
2021/01/15 20:43:10;;;;;;;5.45;2.95;;;22.10;42.10;;;;;;4995486;28;20041;-54
2021/01/15 20:45:36;;;;;;;6.70;3.08;;;22.10;42.10;;;;;;5011790;28;20038;-55
2021/01/15 20:48:02;;;;;;;4.03;2.60;;;22.10;42.10;;;;;;5015377;28;20037;-51
2021/01/15 20:50:28;;;;;;;5.63;2.85;;;22.10;42.10;;;;;;5015128;28;20045;-49
2021/01/15 20:52:56;;;;;;;8.13;3.58;;;22.10;42.10;;;;;;5015376;28;20030;-52
2021/01/15 20:55:23;;;;;;;5.70;3.08;;;22.10;42.10;;;;;;5015466;28;20037;-51
2021/01/15 20:57:56;;;;;;;4.78;2.72;;;22.20;42.20;;;;;;5015237;28;20033;-53
2021/01/15 21:00:23;;;;;;;4.53;2.55;;;22.20;42.20;;;;;;5014999;28;20030;-48
2021/01/15 21:03:04;;;;;;;4.57;2.92;;;22.20;42.20;;;;;;5015097;28;20139;-52
2021/01/15 21:05:30;;;;;;;3.80;2.35;;;22.20;42.10;;;;;;5015053;28;20037;-51
2021/01/15 21:07:56;;;;;;;3.35;2.72;;;22.20;42.10;;;;;;5015338;28;20042;-53
2021/01/15 21:10:22;;;;;;;4.22;2.75;;;22.20;42.00;;;;;;5015056;28;20448;-55
2021/01/15 21:12:48;;;;;;;4.18;3.08;;;22.20;42.00;;;;;;5014904;28;20072;-52
2021/01/15 21:15:14;;;;;;;5.03;2.70;;;22.20;41.90;;;;;;5015183;28;20066;-52
2021/01/15 21:17:44;;;;;;;4.65;2.95;;;22.20;41.90;;;;;;5015421;28;20034;-52
2021/01/15 21:20:10;;;;;;;4.35;3.20;;;22.30;41.90;;;;;;5015064;28;20029;-54
2021/01/15 21:22:35;;;;;;;5.20;3.17;;;22.20;41.80;;;;;;5014638;28;20472;-52
2021/01/15 21:25:01;;;;;;;6.93;3.10;;;22.20;41.80;;;;;;5014987;28;20043;-50
2021/01/15 21:27:26;;;;;;;5.50;3.65;;;22.30;41.80;;;;;;5014789;28;20372;-50
2021/01/15 21:29:52;;;;;;;5.43;3.30;;;22.20;41.70;;;;;;5015210;28;20049;-54
2021/01/15 21:32:20;;;;;;;5.53;3.20;;;22.20;41.60;;;;;;5014776;28;20119;-50
2021/01/15 21:34:49;;;;;;;5.53;3.65;;;22.20;41.60;;;;;;5014867;28;20038;-49
2021/01/15 21:37:14;;;;;;;3.97;3.00;;;22.20;41.60;;;;;;5016437;28;20088;-50
2021/01/15 21:39:40;;;;;;;6.15;3.28;;;22.20;41.50;;;;;;5018904;28;20034;-54
2021/01/15 21:42:05;;;;;;;8.18;4.70;;;22.20;41.50;;;;;;5018059;28;20084;-52
2021/01/15 21:44:31;;;;;;;8.57;4.60;;;22.30;41.30;;;;;;5018191;28;20360;-52
2021/01/15 21:46:57;;;;;;;5.80;3.92;;;22.20;41.20;;;;;;5018378;28;20128;-49
2021/01/15 21:49:22;;;;;;;6.00;4.40;;;22.10;41.10;;;;;;5018899;28;20058;-48
2021/01/15 21:51:53;;;;;;;7.15;4.25;;;22.10;41.00;;;;;;5018080;28;20388;-47
2021/01/15 21:54:18;;;;;;;10.68;6.32;;;22.10;40.90;;;;;;5018181;28;20029;-48
2021/01/15 21:56:45;;;;;;;9.95;4.63;;;22.10;39.70;;;;;;5017946;28;20030;-49
2021/01/15 21:59:11;;;;;;;5.20;4.10;;;22.00;40.10;;;;;;5018434;28;20471;-47
2021/01/15 22:01:42;;;;;;;7.60;3.95;;;22.00;40.50;;;;;;5018408;28;20035;-51
2021/01/15 22:04:08;;;;;;;8.75;4.18;;;22.00;40.60;;;;;;5018188;28;20040;-52
2021/01/15 22:06:39;;;;;;;5.03;3.80;;;22.00;40.80;;;;;;5018344;28;20352;-52
2021/01/15 22:09:05;;;;;;;5.93;3.22;;;22.00;40.90;;;;;;5018141;28;20464;-49
2021/01/15 22:11:31;;;;;;;6.40;3.33;;;21.90;40.90;;;;;;5018231;28;20061;-51
2021/01/15 22:13:56;;;;;;;8.75;3.70;;;21.90;40.90;;;;;;5018125;28;20115;-52
2021/01/15 22:16:22;;;;;;;5.95;4.15;;;21.90;41.00;;;;;;5018043;28;20404;-53
2021/01/15 22:18:47;;;;;;;7.40;4.07;;;21.90;41.00;;;;;;5018002;28;20070;-45
2021/01/15 22:21:15;;;;;;;7.30;4.65;;;21.90;41.00;;;;;;5017749;28;20026;-50
2021/01/15 22:23:40;;;;;;;7.38;3.53;;;21.90;41.00;;;;;;5017835;28;20128;-47
2021/01/15 22:26:06;;;;;;;7.00;3.85;;;21.80;41.00;;;;;;5018140;28;20472;-52
2021/01/15 22:28:32;;;;;;;7.28;5.55;;;21.80;41.00;;;;;;5017442;28;20435;-47
2021/01/15 22:30:57;;;;;;;6.00;4.70;;;21.80;40.00;;;;;;5017305;28;20034;-46
2021/01/15 22:33:23;;;;;;;5.82;4.25;;;21.80;40.20;;;;;;5017840;28;20061;-51
2021/01/15 22:35:49;;;;;;;10.27;4.50;;;21.70;40.40;;;;;;5000738;28;20396;-51
2021/01/15 22:38:22;;;;;;;8.43;3.55;;;21.70;40.60;;;;;;5017475;28;20047;-49
2021/01/15 22:40:51;;;;;;;7.15;3.88;;;21.70;40.60;;;;;;5017585;28;20042;-51
2021/01/15 22:43:16;;;;;;;5.38;3.58;;;21.70;40.70;;;;;;5017276;28;20109;-48
2021/01/15 22:45:43;;;;;;;8.90;4.22;;;21.70;40.70;;;;;;5017170;28;20512;-45
2021/01/15 22:48:25;;;;;;;10.50;4.30;;;21.60;40.70;;;;;;5016797;28;20077;-50
2021/01/15 22:51:01;;;;;;;6.43;4.03;;;21.60;40.60;;;;;;5017375;28;20360;-49
2021/01/15 22:53:37;;;;;;;5.28;3.58;;;21.50;40.70;;;;;;5016781;28;20080;-53
2021/01/15 22:56:05;;;;;;;6.35;4.05;;;21.50;40.60;;;;;;5017366;28;20121;-52
2021/01/15 22:58:30;;;;;;;6.97;3.58;;;21.50;40.70;;;;;;5017522;28;20038;-49
2021/01/15 23:00:57;;;;;;;6.88;3.72;;;21.50;40.60;;;;;;5017315;28;20100;-50
2021/01/15 23:03:24;;;;;;;6.50;3.72;;;21.40;40.60;;;;;;5016802;28;20457;-50
2021/01/15 23:05:54;;;;;;;6.40;3.85;;;21.40;40.50;;;;;;5016639;28;20456;-50
2021/01/15 23:08:19;;;;;;;5.35;3.63;;;21.40;40.50;;;;;;5017150;28;20038;-52
2021/01/15 23:10:45;;;;;;;5.40;3.60;;;21.40;40.50;;;;;;5016880;28;20030;-50
2021/01/15 23:13:12;;;;;;;5.30;3.42;;;21.40;40.40;;;;;;5017068;28;20451;-48
2021/01/15 23:15:42;;;;;;;6.47;3.42;;;21.30;40.40;;;;;;5017018;28;20161;-52
2021/01/15 23:18:10;;;;;;;7.03;3.70;;;21.30;40.30;;;;;;5016584;28;20392;-53
2021/01/15 23:20:36;;;;;;;6.47;4.13;;;21.30;40.30;;;;;;5016655;28;20393;-49
2021/01/15 23:23:03;;;;;;;3.05;2.75;;;21.20;40.20;;;;;;5017202;28;20093;-53
2021/01/15 23:25:32;;;;;;;4.43;3.13;;;21.20;40.20;;;;;;5016831;28;20038;-52
2021/01/15 23:27:59;;;;;;;5.65;3.95;;;21.20;40.20;;;;;;5016959;28;20044;-48
2021/01/15 23:30:31;;;;;;;4.85;3.67;;;21.20;40.10;;;;;;5016624;28;20030;-47
2021/01/15 23:32:57;;;;;;;5.53;3.63;;;21.20;40.10;;;;;;5015981;28;20046;-55
2021/01/15 23:35:24;;;;;;;4.72;3.35;;;21.20;40.10;;;;;;5016592;28;20401;-51
2021/01/15 23:37:52;;;;;;;3.53;3.10;;;21.10;40.00;;;;;;5016883;28;20034;-52
2021/01/15 23:40:18;;;;;;;4.55;3.17;;;21.10;40.00;;;;;;5016432;28;20034;-53
2021/01/15 23:43:07;;;;;;;5.65;3.60;;;21.10;40.00;;;;;;5016451;28;20084;-50
2021/01/15 23:45:38;;;;;;;5.10;3.30;;;21.00;39.90;;;;;;5015768;28;20468;-47
2021/01/15 23:48:06;;;;;;;4.80;3.03;;;21.00;39.90;;;;;;5016785;28;20045;-52
2021/01/15 23:50:36;;;;;;;4.07;3.58;;;20.90;39.90;;;;;;5016291;28;20310;-49
2021/01/15 23:53:02;;;;;;;4.70;3.22;;;20.90;39.90;;;;;;5016580;28;20030;-53
2021/01/15 23:55:27;;;;;;;4.55;3.13;;;20.90;39.90;;;;;;5016211;28;20361;-54
2021/01/15 23:57:58;;;;;;;4.88;3.30;;;20.90;39.90;;;;;;5015984;28;20104;-52
